createdAt,value
2018-04-12T00:01:00.232Z,3.90
2018-04-12T00:03:30.472Z,4.43
2018-04-12T00:06:00.988Z,3.60
2018-04-12T00:08:31.527Z,4.00
2018-04-12T00:11:02.049Z,4.13
2018-04-12T00:13:32.589Z,4.30
2018-04-12T00:16:03.103Z,4.30
2018-04-12T00:18:33.843Z,4.17
2018-04-12T00:21:04.085Z,4.03
2018-04-12T00:23:34.706Z,4.40
2018-04-12T00:26:05.396Z,5.10
2018-04-12T00:28:36.042Z,4.93
2018-04-12T00:31:06.908Z,5.37
2018-04-12T00:33:37.629Z,6.63
2018-04-12T00:36:08.884Z,6.77
2018-04-12T00:38:40.182Z,5.97
2018-04-12T00:41:10.663Z,5.53
2018-04-12T00:43:41.205Z,5.93
2018-04-12T00:46:11.779Z,7.67
2018-04-12T00:48:42.349Z,7.40
2018-04-12T00:51:13.764Z,7.60
2018-04-12T00:54:06.041Z,7.67
2018-04-12T00:56:36.274Z,6.83
2018-04-12T00:59:06.487Z,9.20
2018-04-12T01:01:37.016Z,8.17
2018-04-12T01:04:07.651Z,8.50
2018-04-12T01:06:38.188Z,8.67
2018-04-12T01:09:09.280Z,11.07
2018-04-12T01:11:39.393Z,9.40
2018-04-12T01:14:10.072Z,9.17
2018-04-12T01:16:40.188Z,10.83
2018-04-12T01:19:11.133Z,10.47
2018-04-12T01:21:41.660Z,10.77
2018-04-12T01:24:12.367Z,10.93
2018-04-12T01:26:43.751Z,11.10
2018-04-12T01:29:13.969Z,10.70
2018-04-12T01:31:44.604Z,9.87
2018-04-12T01:34:15.100Z,10.43
2018-04-12T01:36:46.535Z,10.40
2018-04-12T01:39:17.113Z,9.53
2018-04-12T01:41:47.648Z,11.07
2018-04-12T01:44:18.371Z,10.20
2018-04-12T01:46:49.267Z,10.37
2018-04-12T01:49:19.797Z,12.30
2018-04-12T01:51:50.280Z,12.30
2018-04-12T01:54:20.803Z,12.07
2018-04-12T01:56:51.329Z,10.93
2018-04-12T01:59:21.969Z,11.80
2018-04-12T02:01:52.358Z,14.33
2018-04-12T02:04:22.917Z,13.43
2018-04-12T02:06:54.169Z,12.43
2018-04-12T02:09:25.432Z,11.43
2018-04-12T02:11:55.948Z,11.40
2018-04-12T02:14:26.424Z,12.40
2018-04-12T02:16:56.590Z,11.37
2018-04-12T02:19:27.133Z,10.73
2018-04-12T02:21:57.648Z,11.43
2018-04-12T02:24:27.769Z,11.47
2018-04-12T02:26:58.368Z,11.47
2018-04-12T02:29:28.988Z,12.47
2018-04-12T02:31:59.478Z,11.13
2018-04-12T02:34:30.098Z,12.30
2018-04-12T02:37:00.595Z,12.20
2018-04-12T02:39:31.108Z,11.80
2018-04-12T02:42:01.285Z,13.43
2018-04-12T02:44:31.966Z,12.80
2018-04-12T02:47:02.505Z,12.07
2018-04-12T02:49:33.070Z,11.63
2018-04-12T02:52:03.600Z,14.93
2018-04-12T02:54:34.696Z,13.17
2018-04-12T02:57:05.689Z,13.53
2018-04-12T02:59:35.901Z,14.10
2018-04-12T03:02:06.448Z,13.07
2018-04-12T03:04:37.021Z,15.10
2018-04-12T03:07:07.185Z,13.23
2018-04-12T03:09:37.872Z,12.77
2018-04-12T03:12:08.448Z,12.63
2018-04-12T03:14:38.932Z,15.43
2018-04-12T03:17:09.465Z,16.40
2018-04-12T03:19:40.070Z,13.40
2018-04-12T03:22:10.672Z,16.07
2018-04-12T03:24:41.308Z,17.40
2018-04-12T03:27:11.899Z,16.37
2018-04-12T03:29:42.470Z,15.07
2018-04-12T03:32:12.996Z,15.10
2018-04-12T03:34:43.529Z,15.87
2018-04-12T03:37:14.359Z,15.30
2018-04-12T03:39:46.016Z,15.53
2018-04-12T03:42:17.056Z,21.47
2018-04-12T03:44:47.690Z,21.90
2018-04-12T03:47:18.276Z,19.53
2018-04-12T03:49:48.803Z,22.00
2018-04-12T03:52:18.985Z,20.67
2018-04-12T03:54:49.192Z,24.87
2018-04-12T03:57:19.369Z,24.20
2018-04-12T03:59:50.013Z,21.27
2018-04-12T04:02:20.551Z,21.20
2018-04-12T04:04:51.112Z,19.47
2018-04-12T04:07:21.664Z,20.57
2018-04-12T04:09:52.275Z,20.10
2018-04-12T04:12:22.867Z,25.47
2018-04-12T04:15:02.304Z,23.23
2018-04-12T04:21:51.692Z,26.93
2018-04-12T04:24:22.286Z,31.53
2018-04-12T04:26:52.873Z,31.17
2018-04-12T04:29:23.490Z,34.30
2018-04-12T04:31:53.879Z,32.17
2018-04-12T04:34:24.504Z,31.43
2018-04-12T04:36:55.193Z,33.00
2018-04-12T04:39:25.812Z,29.03
2018-04-12T04:41:56.400Z,40.70
2018-04-12T04:44:26.985Z,31.80
2018-04-12T04:46:57.664Z,33.77
2018-04-12T04:49:28.202Z,29.40
2018-04-12T04:51:58.786Z,29.37
2018-04-12T04:54:30.168Z,27.50
2018-04-12T04:57:00.403Z,30.07
2018-04-12T04:59:30.980Z,34.30
2018-04-12T05:02:01.752Z,31.83
2018-04-12T05:04:32.396Z,30.23
2018-04-12T05:07:03.027Z,30.43
2018-04-12T05:09:33.652Z,32.93
2018-04-12T05:12:04.281Z,33.60
2018-04-12T05:14:34.469Z,32.20
2018-04-12T05:17:05.100Z,28.40
2018-04-12T05:19:35.669Z,31.63
2018-04-12T05:22:06.403Z,28.67
2018-04-12T05:24:39.041Z,28.40
2018-04-12T05:27:09.616Z,31.23
2018-04-12T05:29:51.676Z,35.47
2018-04-12T05:32:22.309Z,31.30
2018-04-12T05:34:52.882Z,33.77
2018-04-12T05:37:23.696Z,31.50
2018-04-12T05:39:54.429Z,28.13
2018-04-12T05:42:25.094Z,28.13
2018-04-12T05:44:55.709Z,33.50
2018-04-12T05:47:26.409Z,30.97
2018-04-12T05:49:57.032Z,29.37
2018-04-12T05:52:28.176Z,29.20
2018-04-12T05:54:58.755Z,31.10
2018-04-12T05:57:29.484Z,30.53
2018-04-12T06:00:00.234Z,30.17
2018-04-12T06:02:31.095Z,30.83
2018-04-12T06:05:02.257Z,28.93
2018-04-12T06:07:42.521Z,29.63
2018-04-12T06:10:30.089Z,27.20
2018-04-12T06:13:00.688Z,24.27
2018-04-12T06:15:32.544Z,26.33
2018-04-12T06:18:03.173Z,25.87
2018-04-12T06:20:33.765Z,28.77
2018-04-12T06:23:04.550Z,24.83
2018-04-12T06:25:45.258Z,26.30
2018-04-12T06:28:16.138Z,25.53
2018-04-12T06:30:47.021Z,26.00
2018-04-12T06:33:17.760Z,24.50
2018-04-12T06:35:48.455Z,27.60
2018-04-12T06:38:18.864Z,26.47
2018-04-12T06:40:49.261Z,25.00
2018-04-12T06:43:19.941Z,23.30
2018-04-12T06:45:50.203Z,21.93
2018-04-12T06:48:20.938Z,22.20
2018-04-12T06:50:51.812Z,22.50
2018-04-12T06:53:22.812Z,20.27
2018-04-12T06:55:53.766Z,20.53
2018-04-12T06:58:23.755Z,23.47
2018-04-12T07:00:53.525Z,21.70
2018-04-12T07:03:23.247Z,21.13
2018-04-12T07:06:04.774Z,21.90
2018-04-12T07:08:47.854Z,21.63
2018-04-12T07:11:17.670Z,21.93
2018-04-12T07:13:48.627Z,22.27
2018-04-12T07:16:18.521Z,20.80
2018-04-12T07:18:48.264Z,21.80
2018-04-12T07:21:18.393Z,23.90
2018-04-12T07:23:48.132Z,19.63
2018-04-12T07:26:18.637Z,18.70
2018-04-12T07:28:48.371Z,19.90
2018-04-12T07:31:24.873Z,20.60
2018-04-12T07:33:54.800Z,19.80
2018-04-12T07:36:24.753Z,20.10
2018-04-12T07:38:54.526Z,18.83
2018-04-12T07:41:24.272Z,17.33
2018-04-12T07:43:54.028Z,18.77
2018-04-12T07:46:23.774Z,15.70
2018-04-12T07:48:54.731Z,14.13
2018-04-12T07:51:24.526Z,12.83
2018-04-12T07:53:54.320Z,13.43
2018-04-12T07:56:24.060Z,11.47
2018-04-12T07:58:53.784Z,11.30
2018-04-12T08:01:23.524Z,13.80
2018-04-12T08:03:54.135Z,14.07
2018-04-12T08:06:23.855Z,12.40
2018-04-12T08:08:54.360Z,10.67
2018-04-12T08:11:24.108Z,11.77
2018-04-12T08:13:53.856Z,11.07
2018-04-12T08:16:23.693Z,10.97
2018-04-12T08:18:53.439Z,13.63
2018-04-12T08:21:23.971Z,10.53
2018-04-12T08:23:53.748Z,13.30
2018-04-12T08:26:23.491Z,11.80
2018-04-12T08:28:54.032Z,11.10
2018-04-12T08:31:23.787Z,13.33
2018-04-12T08:33:54.199Z,13.70
2018-04-12T08:36:23.968Z,11.87
2018-04-12T08:38:53.750Z,11.77
2018-04-12T08:41:23.906Z,10.50
2018-04-12T08:43:54.459Z,11.37
2018-04-12T08:49:03.660Z,11.27
2018-04-12T08:51:33.747Z,12.93
2018-04-12T08:54:12.036Z,10.70
2018-04-12T08:56:42.078Z,13.10
2018-04-12T08:59:24.064Z,15.07
2018-04-12T09:01:56.967Z,12.67
2018-04-12T09:04:27.108Z,14.33
2018-04-12T09:06:57.173Z,11.43
2018-04-12T09:09:30.494Z,12.17
2018-04-12T09:12:01.496Z,14.27
2018-04-12T09:14:32.039Z,13.37
2018-04-12T09:17:02.176Z,14.23
2018-04-12T09:19:31.459Z,12.90
2018-04-12T09:22:00.815Z,13.27
2018-04-12T09:24:30.071Z,12.97
2018-04-12T09:26:59.359Z,13.77
2018-04-12T09:29:29.394Z,14.10
2018-04-12T09:32:00.338Z,13.33
2018-04-12T09:34:30.385Z,17.40
2018-04-12T09:37:00.432Z,12.93
2018-04-12T09:39:30.500Z,12.53
2018-04-12T09:42:00.211Z,16.10
2018-04-12T09:44:30.256Z,17.60
2018-04-12T09:47:00.308Z,16.43
2018-04-12T09:49:30.429Z,16.53
2018-04-12T09:52:00.461Z,18.40
2018-04-12T09:54:30.493Z,16.70
2018-04-12T09:57:00.539Z,16.23
2018-04-12T09:59:30.573Z,16.13
2018-04-12T10:02:01.636Z,14.43
2018-04-12T10:04:36.284Z,14.70
2018-04-12T10:07:06.471Z,13.53
2018-04-12T10:09:37.468Z,17.87
2018-04-12T10:12:08.091Z,15.40
2018-04-12T10:14:38.220Z,15.30
2018-04-12T10:17:08.469Z,18.03
2018-04-12T10:19:38.701Z,17.10
2018-04-12T10:22:08.820Z,17.53
2018-04-12T10:24:39.348Z,15.77
2018-04-12T10:27:09.468Z,16.33
2018-04-12T10:29:39.229Z,15.17
2018-04-12T10:32:09.297Z,13.00
2018-04-12T10:34:39.480Z,15.27
2018-04-12T10:37:09.746Z,14.53
2018-04-12T10:39:39.864Z,14.00
2018-04-12T10:42:10.090Z,14.33
2018-04-12T10:44:40.609Z,17.20
2018-04-12T10:47:11.912Z,13.47
2018-04-12T10:49:42.033Z,14.10
2018-04-12T10:52:12.123Z,16.03
2018-04-12T10:54:49.856Z,16.30
2018-04-12T10:57:20.028Z,14.43
2018-04-12T10:59:50.377Z,14.83
2018-04-12T11:02:21.384Z,14.60
2018-04-12T11:04:51.508Z,14.90
2018-04-12T11:07:21.625Z,16.27
2018-04-12T11:09:57.821Z,15.67
2018-04-12T11:12:28.009Z,14.30
2018-04-12T11:14:58.129Z,14.53
2018-04-12T11:17:29.324Z,14.00
2018-04-12T11:19:59.512Z,17.93
2018-04-12T11:22:29.715Z,14.40
2018-04-12T11:24:59.840Z,13.80
2018-04-12T11:27:41.936Z,15.97
2018-04-12T11:30:12.461Z,16.13
2018-04-12T11:32:54.283Z,14.43
2018-04-12T11:35:24.487Z,16.47
2018-04-12T11:37:54.614Z,16.77
2018-04-12T11:40:24.796Z,14.87
2018-04-12T11:42:55.376Z,17.23
2018-04-12T11:45:25.669Z,17.50
2018-04-12T11:47:55.918Z,15.10
2018-04-12T11:50:27.177Z,16.63
2018-04-12T11:52:57.382Z,16.90
2018-04-12T11:55:27.931Z,17.93
2018-04-12T11:57:58.281Z,16.07
2018-04-12T12:00:35.726Z,20.50
2018-04-12T12:03:05.898Z,17.80
2018-04-12T12:05:36.697Z,17.73
2018-04-12T12:08:08.663Z,17.80
2018-04-12T12:10:40.769Z,19.13
2018-04-12T12:13:10.877Z,16.73
2018-04-12T12:15:41.048Z,16.87
2018-04-12T12:18:11.346Z,16.83
2018-04-12T12:20:42.069Z,21.00
2018-04-12T12:23:12.182Z,17.50
2018-04-12T12:25:42.305Z,17.40
2018-04-12T12:28:13.189Z,15.73
2018-04-12T12:30:43.307Z,18.40
2018-04-12T12:33:13.129Z,18.40
2018-04-12T12:35:44.059Z,15.33
2018-04-12T12:38:16.237Z,14.90
2018-04-12T12:40:46.714Z,15.30
2018-04-12T12:43:17.281Z,14.97
2018-04-12T12:45:47.737Z,18.27
2018-04-12T12:51:07.000Z,15.10
2018-04-12T12:53:37.121Z,18.10
2018-04-12T12:56:07.315Z,19.50
2018-04-12T12:58:37.455Z,17.33
2018-04-12T13:01:08.315Z,17.13
2018-04-12T13:03:38.910Z,13.50
2018-04-12T13:06:09.003Z,14.90
2018-04-12T13:08:39.124Z,15.20
2018-04-12T13:11:14.864Z,14.40
2018-04-12T13:13:44.915Z,14.07
2018-04-12T13:16:14.962Z,15.03
2018-04-12T13:18:45.002Z,13.93
2018-04-12T13:21:15.082Z,14.10
2018-04-12T13:23:45.192Z,12.90
2018-04-12T13:26:15.305Z,14.50
2018-04-12T13:28:45.390Z,14.40
2018-04-12T13:31:15.557Z,17.30
2018-04-12T13:33:45.616Z,13.87
2018-04-12T13:36:15.744Z,13.17
2018-04-12T13:38:45.842Z,14.77
2018-04-12T13:41:15.892Z,15.60
2018-04-12T13:43:45.951Z,13.90
2018-04-12T13:46:16.052Z,13.80
2018-04-12T13:48:46.183Z,14.73
2018-04-12T13:51:17.311Z,16.20
2018-04-12T13:53:49.128Z,15.00
2018-04-12T13:56:23.239Z,14.00
2018-04-12T13:58:54.021Z,15.27
2018-04-12T14:01:24.163Z,13.03
2018-04-12T14:03:54.222Z,15.93
2018-04-12T14:06:24.331Z,14.07
2018-04-12T14:08:54.453Z,13.70
2018-04-12T14:11:25.912Z,13.50
2018-04-12T14:13:56.000Z,12.97
2018-04-12T14:16:26.050Z,12.63
2018-04-12T14:18:56.105Z,13.13
2018-04-12T14:21:26.189Z,13.27
2018-04-12T14:23:56.265Z,12.27
2018-04-12T14:26:26.325Z,14.40
2018-04-12T14:28:55.724Z,11.37
2018-04-12T14:31:25.751Z,12.13
2018-04-12T14:33:55.831Z,10.87
2018-04-12T14:36:25.876Z,11.43
2018-04-12T14:38:58.002Z,11.60
2018-04-12T14:41:28.095Z,11.93
2018-04-12T14:43:58.189Z,12.10
2018-04-12T14:46:28.250Z,10.87
2018-04-12T14:48:59.353Z,10.30
2018-04-12T14:51:29.409Z,11.33
2018-04-12T14:54:01.054Z,10.00
2018-04-12T14:56:39.687Z,11.87
2018-04-12T14:59:09.743Z,11.87
2018-04-12T15:01:48.740Z,10.07
2018-04-12T15:04:18.820Z,9.77
2018-04-12T15:06:48.913Z,11.37
2018-04-12T15:09:18.969Z,10.67
2018-04-12T15:11:49.792Z,9.67
2018-04-12T15:14:21.513Z,11.03
2018-04-12T15:16:51.630Z,8.30
2018-04-12T15:19:21.704Z,9.83
2018-04-12T15:21:51.739Z,9.97
2018-04-12T15:24:21.804Z,13.40
2018-04-12T15:26:58.761Z,10.40
2018-04-12T15:29:43.014Z,10.87
2018-04-12T15:32:19.004Z,7.10
2018-04-12T15:34:54.369Z,6.80
2018-04-12T15:37:28.627Z,7.77
2018-04-12T15:39:58.665Z,6.53
2018-04-12T15:42:28.717Z,6.63
2018-04-12T15:44:58.414Z,6.83
2018-04-12T15:47:28.445Z,6.67
2018-04-12T15:49:58.485Z,6.77
2018-04-12T15:52:28.555Z,7.77
2018-04-12T15:54:58.660Z,9.77
2018-04-12T15:57:28.713Z,6.70
2018-04-12T15:59:58.761Z,9.43
2018-04-12T16:02:28.833Z,7.43
2018-04-12T16:05:12.037Z,7.07
2018-04-12T16:07:42.126Z,9.80
2018-04-12T16:10:11.800Z,5.00
2018-04-12T16:12:41.874Z,4.77
2018-04-12T16:15:11.927Z,5.27
2018-04-12T16:17:42.060Z,4.90
2018-04-12T16:20:12.085Z,3.20
2018-04-12T16:22:42.157Z,12.60
2018-04-12T16:25:12.228Z,35.07
2018-04-12T16:27:42.320Z,10.37
2018-04-12T16:30:12.510Z,5.23
2018-04-12T16:32:42.595Z,2.93
2018-04-12T16:35:12.693Z,4.23
2018-04-12T16:37:42.422Z,5.73
2018-04-12T16:40:12.499Z,4.20
2018-04-12T16:42:42.612Z,3.77
2018-04-12T16:45:12.774Z,3.60
2018-04-12T16:47:44.937Z,4.83
2018-04-12T16:50:15.441Z,8.57
2018-04-12T16:52:50.384Z,3.80
2018-04-12T16:55:23.574Z,13.97
2018-04-12T16:58:02.395Z,9.97
2018-04-12T17:00:35.927Z,4.50
2018-04-12T17:03:06.583Z,3.97
2018-04-12T17:05:37.389Z,7.03
2018-04-12T17:08:08.532Z,3.43
2018-04-12T17:10:41.029Z,3.20
2018-04-12T17:13:12.343Z,2.37
2018-04-12T17:15:43.409Z,2.43
2018-04-12T17:18:14.395Z,3.33
2018-04-12T17:20:45.755Z,2.83
2018-04-12T17:23:17.094Z,3.20
2018-04-12T17:28:26.412Z,6.50
2018-04-12T17:30:57.826Z,16.10
2018-04-12T17:33:29.385Z,8.57
2018-04-12T17:36:00.968Z,8.50
2018-04-12T17:38:32.152Z,5.57
2018-04-12T17:41:03.425Z,6.03
2018-04-12T17:43:39.073Z,4.67
2018-04-12T17:46:10.154Z,5.63
2018-04-12T17:48:43.131Z,4.87
2018-04-12T17:51:14.151Z,4.40
2018-04-12T17:53:48.467Z,4.90
2018-04-12T17:56:18.644Z,5.67
2018-04-12T17:58:49.009Z,8.53
2018-04-12T18:01:19.408Z,10.57
2018-04-12T18:03:49.606Z,6.10
2018-04-12T18:06:20.105Z,2.93
2018-04-12T18:08:53.164Z,2.80
2018-04-12T18:11:23.321Z,3.70
2018-04-12T18:13:55.213Z,3.63
2018-04-12T18:16:25.310Z,4.77
2018-04-12T18:18:55.475Z,4.73
2018-04-12T18:21:25.725Z,3.67
2018-04-12T18:23:55.783Z,5.00
2018-04-12T18:26:25.848Z,2.57
2018-04-12T18:28:56.272Z,4.80
2018-04-12T18:31:25.981Z,7.60
2018-04-12T18:33:56.035Z,3.57
2018-04-12T18:36:44.533Z,5.23
2018-04-12T18:39:15.720Z,7.30
2018-04-12T18:41:45.941Z,6.43
2018-04-12T18:44:15.745Z,4.63
2018-04-12T18:46:46.017Z,3.53
2018-04-12T18:49:16.384Z,4.33
2018-04-12T18:51:46.728Z,3.80
2018-04-12T18:54:17.044Z,2.77
2018-04-12T18:56:47.594Z,4.97
2018-04-12T18:59:18.587Z,4.57
2018-04-12T19:01:50.675Z,4.43
2018-04-12T19:04:20.962Z,3.30
2018-04-12T19:06:51.120Z,4.90
2018-04-12T19:09:21.241Z,3.70
2018-04-12T19:12:04.039Z,7.67
2018-04-12T19:14:34.396Z,4.77
2018-04-12T19:17:04.867Z,4.40
2018-04-12T19:19:37.503Z,2.30
2018-04-12T19:22:11.585Z,2.57
2018-04-12T19:24:41.827Z,3.23
2018-04-12T19:27:12.127Z,3.23
2018-04-12T19:29:42.685Z,2.63
2018-04-12T19:32:13.647Z,2.63
2018-04-12T19:34:45.200Z,4.07
2018-04-12T19:37:37.938Z,3.67
2018-04-12T19:40:08.040Z,5.97
2018-04-12T19:42:38.278Z,6.07
2018-04-12T19:45:08.571Z,4.97
2018-04-12T19:47:38.781Z,5.23
2018-04-12T19:50:09.045Z,5.13
2018-04-12T19:52:39.279Z,3.77
2018-04-12T19:55:09.283Z,2.73
2018-04-12T19:57:39.500Z,5.87
2018-04-12T20:00:09.860Z,3.20
2018-04-12T20:02:40.116Z,7.40
2018-04-12T20:05:10.263Z,11.87
2018-04-12T20:07:40.596Z,7.60
2018-04-12T20:10:11.120Z,5.90
2018-04-12T20:12:41.405Z,6.57
2018-04-12T20:15:14.810Z,4.70
2018-04-12T20:17:45.900Z,3.63
2018-04-12T20:20:16.111Z,3.43
2018-04-12T20:22:46.399Z,5.47
2018-04-12T20:25:16.573Z,4.57
2018-04-12T20:27:47.495Z,4.30
2018-04-12T20:30:17.632Z,3.77
2018-04-12T20:32:47.936Z,5.17
2018-04-12T20:35:18.991Z,2.80
2018-04-12T20:37:49.727Z,3.33
2018-04-12T20:40:25.985Z,4.73
2018-04-12T20:42:56.186Z,4.07
2018-04-12T20:45:27.235Z,5.57
2018-04-12T20:47:57.493Z,6.30
2018-04-12T20:50:27.279Z,4.27
2018-04-12T20:52:57.508Z,6.80
2018-04-12T20:55:27.719Z,3.60
2018-04-12T20:57:58.011Z,4.33
2018-04-12T21:00:28.578Z,5.10
2018-04-12T21:02:58.958Z,4.37
2018-04-12T21:05:29.591Z,5.87
2018-04-12T21:07:59.884Z,5.90
2018-04-12T21:10:30.287Z,5.07
2018-04-12T21:13:00.628Z,4.30
2018-04-12T21:15:30.860Z,5.63
2018-04-12T21:18:01.027Z,3.60
2018-04-12T21:20:31.544Z,3.23
2018-04-12T21:23:02.237Z,3.17
2018-04-12T21:25:32.542Z,4.30
2018-04-12T21:28:02.880Z,3.63
2018-04-12T21:30:33.362Z,4.17
2018-04-12T21:33:03.648Z,3.43
2018-04-12T21:35:34.176Z,6.67
2018-04-12T21:38:04.626Z,5.40
2018-04-12T21:40:34.899Z,3.63
2018-04-12T21:43:05.308Z,3.80
2018-04-12T21:45:35.664Z,3.80
2018-04-12T21:48:05.836Z,4.73
2018-04-12T21:50:36.816Z,6.03
2018-04-12T21:53:07.595Z,6.70
2018-04-12T21:55:38.723Z,5.27
2018-04-12T21:58:08.773Z,3.47
2018-04-12T22:00:39.354Z,4.67
2018-04-12T22:03:09.584Z,5.13
2018-04-12T22:05:39.315Z,5.57
2018-04-12T22:08:09.593Z,7.20
2018-04-12T22:10:39.807Z,6.73
2018-04-12T22:13:10.898Z,6.47
2018-04-12T22:15:41.087Z,6.90
2018-04-12T22:18:11.374Z,6.17
2018-04-12T22:20:41.708Z,4.90
2018-04-12T22:23:12.175Z,5.03
2018-04-12T22:25:42.290Z,8.13
2018-04-12T22:28:12.057Z,5.60
2018-04-12T22:30:42.178Z,7.03
2018-04-12T22:33:12.297Z,7.27
2018-04-12T22:35:43.101Z,6.63
2018-04-12T22:38:13.367Z,7.30
2018-04-12T22:40:43.520Z,6.47
2018-04-12T22:43:14.158Z,6.00
2018-04-12T22:45:44.276Z,5.40
2018-04-12T22:48:14.402Z,5.80
2018-04-12T22:50:44.566Z,5.20
2018-04-12T22:53:14.295Z,6.77
2018-04-12T22:55:44.557Z,7.50
2018-04-12T22:58:15.379Z,5.43
2018-04-12T23:00:46.210Z,5.93
2018-04-12T23:03:16.349Z,5.73
2018-04-12T23:05:47.490Z,7.63
2018-04-12T23:08:17.219Z,8.20
2018-04-12T23:10:47.367Z,9.37
2018-04-12T23:13:17.500Z,7.73
2018-04-12T23:15:47.656Z,7.43
2018-04-12T23:18:17.895Z,6.33
2018-04-12T23:20:48.215Z,7.80
2018-04-12T23:23:18.387Z,6.80
2018-04-12T23:25:48.502Z,9.07
2018-04-12T23:28:18.627Z,7.63
2018-04-12T23:30:48.789Z,10.37
2018-04-12T23:33:18.662Z,9.23
2018-04-12T23:35:48.787Z,7.60
2018-04-12T23:38:18.949Z,7.20
2018-04-12T23:40:48.768Z,6.60
2018-04-12T23:43:20.179Z,6.77
2018-04-12T23:45:50.327Z,7.07
2018-04-12T23:48:20.740Z,6.47
2018-04-12T23:50:51.526Z,7.07
2018-04-12T23:53:21.636Z,7.73
2018-04-12T23:55:52.408Z,6.50
2018-04-12T23:58:23.136Z,7.00
